sensor_id;sensor_type;location;lat;lon;timestamp;P1;durP1;ratioP1;P2;durP2;ratioP2
50309;SDS011;36207;51.850;21.698;2023-04-01T00:01:14;15.70;;;10.00;;
50309;SDS011;36207;51.850;21.698;2023-04-01T00:03:42;17.60;;;11.00;;
50309;SDS011;36207;51.850;21.698;2023-04-01T00:06:09;18.30;;;11.10;;
50309;SDS011;36207;51.850;21.698;2023-04-01T00:08:37;16.90;;;11.60;;
50309;SDS011;36207;51.850;21.698;2023-04-01T00:11:03;18.50;;;12.00;;
50309;SDS011;36207;51.850;21.698;2023-04-01T00:13:29;18.70;;;12.20;;
50309;SDS011;36207;51.850;21.698;2023-04-01T00:15:55;19.20;;;12.60;;
50309;SDS011;36207;51.850;21.698;2023-04-01T00:18:22;22.10;;;13.30;;
50309;SDS011;36207;51.850;21.698;2023-04-01T00:20:48;19.80;;;13.20;;
50309;SDS011;36207;51.850;21.698;2023-04-01T00:23:16;19.70;;;13.00;;
50309;SDS011;36207;51.850;21.698;2023-04-01T00:25:43;21.10;;;13.60;;
50309;SDS011;36207;51.850;21.698;2023-04-01T00:28:10;21.30;;;13.60;;
50309;SDS011;36207;51.850;21.698;2023-04-01T00:30:36;21.40;;;13.70;;
50309;SDS011;36207;51.850;21.698;2023-04-01T00:33:03;22.30;;;14.50;;
50309;SDS011;36207;51.850;21.698;2023-04-01T00:35:29;21.10;;;14.20;;
50309;SDS011;36207;51.850;21.698;2023-04-01T00:37:55;21.80;;;13.80;;
50309;SDS011;36207;51.850;21.698;2023-04-01T00:40:29;23.00;;;15.10;;
50309;SDS011;36207;51.850;21.698;2023-04-01T00:43:00;23.10;;;14.10;;
50309;SDS011;36207;51.850;21.698;2023-04-01T00:45:34;23.20;;;14.50;;
50309;SDS011;36207;51.850;21.698;2023-04-01T00:48:26;21.80;;;14.30;;
50309;SDS011;36207;51.850;21.698;2023-04-01T00:51:09;22.40;;;14.30;;
50309;SDS011;36207;51.850;21.698;2023-04-01T00:53:43;23.20;;;15.90;;
50309;SDS011;36207;51.850;21.698;2023-04-01T00:59:23;23.90;;;15.60;;
50309;SDS011;36207;51.850;21.698;2023-04-01T01:01:51;23.30;;;15.70;;
50309;SDS011;36207;51.850;21.698;2023-04-01T01:09:48;26.00;;;16.30;;
50309;SDS011;36207;51.850;21.698;2023-04-01T01:37:46;25.20;;;16.50;;
50309;SDS011;36207;51.850;21.698;2023-04-01T01:40:16;23.70;;;15.80;;
50309;SDS011;36207;51.850;21.698;2023-04-01T01:42:46;25.00;;;16.30;;
50309;SDS011;36207;51.850;21.698;2023-04-01T01:45:16;24.30;;;15.80;;
50309;SDS011;36207;51.850;21.698;2023-04-01T01:47:46;25.40;;;16.40;;
50309;SDS011;36207;51.850;21.698;2023-04-01T01:50:15;25.20;;;15.90;;
50309;SDS011;36207;51.850;21.698;2023-04-01T01:52:45;25.30;;;16.00;;
50309;SDS011;36207;51.850;21.698;2023-04-01T02:00:56;22.10;;;14.40;;
50309;SDS011;36207;51.850;21.698;2023-04-01T02:03:25;23.20;;;15.20;;
50309;SDS011;36207;51.850;21.698;2023-04-01T02:05:56;22.30;;;15.00;;
50309;SDS011;36207;51.850;21.698;2023-04-01T02:08:34;22.30;;;14.20;;
50309;SDS011;36207;51.850;21.698;2023-04-01T02:11:13;23.50;;;14.70;;
50309;SDS011;36207;51.850;21.698;2023-04-01T02:13:48;20.30;;;14.10;;
50309;SDS011;36207;51.850;21.698;2023-04-01T02:16:19;21.50;;;13.40;;
50309;SDS011;36207;51.850;21.698;2023-04-01T02:18:51;23.70;;;14.60;;
50309;SDS011;36207;51.850;21.698;2023-04-01T02:21:21;21.80;;;13.70;;
50309;SDS011;36207;51.850;21.698;2023-04-01T02:23:50;21.30;;;13.60;;
50309;SDS011;36207;51.850;21.698;2023-04-01T02:26:18;20.90;;;14.00;;
50309;SDS011;36207;51.850;21.698;2023-04-01T02:28:46;22.10;;;13.90;;
50309;SDS011;36207;51.850;21.698;2023-04-01T02:31:14;22.50;;;14.30;;
50309;SDS011;36207;51.850;21.698;2023-04-01T02:33:40;20.90;;;14.50;;
50309;SDS011;36207;51.850;21.698;2023-04-01T02:36:10;21.90;;;13.30;;
50309;SDS011;36207;51.850;21.698;2023-04-01T02:38:39;23.00;;;13.90;;
50309;SDS011;36207;51.850;21.698;2023-04-01T02:41:07;20.90;;;13.90;;
50309;SDS011;36207;51.850;21.698;2023-04-01T02:43:33;22.60;;;13.90;;
50309;SDS011;36207;51.850;21.698;2023-04-01T02:45:59;19.10;;;13.20;;
50309;SDS011;36207;51.850;21.698;2023-04-01T02:48:28;20.50;;;13.40;;
50309;SDS011;36207;51.850;21.698;2023-04-01T02:50:55;22.00;;;13.10;;
50309;SDS011;36207;51.850;21.698;2023-04-01T02:53:21;20.10;;;13.00;;
50309;SDS011;36207;51.850;21.698;2023-04-01T02:55:47;20.30;;;13.40;;
50309;SDS011;36207;51.850;21.698;2023-04-01T02:58:16;20.10;;;13.10;;
50309;SDS011;36207;51.850;21.698;2023-04-01T03:00:42;17.70;;;12.30;;
50309;SDS011;36207;51.850;21.698;2023-04-01T03:03:08;21.40;;;13.40;;
50309;SDS011;36207;51.850;21.698;2023-04-01T03:05:35;18.60;;;12.20;;
50309;SDS011;36207;51.850;21.698;2023-04-01T03:08:01;18.20;;;12.00;;
50309;SDS011;36207;51.850;21.698;2023-04-01T03:10:28;20.80;;;12.70;;
50309;SDS011;36207;51.850;21.698;2023-04-01T03:12:54;19.90;;;12.40;;
50309;SDS011;36207;51.850;21.698;2023-04-01T03:15:20;19.10;;;12.00;;
50309;SDS011;36207;51.850;21.698;2023-04-01T03:17:46;20.90;;;12.20;;
50309;SDS011;36207;51.850;21.698;2023-04-01T03:20:13;20.10;;;11.80;;
50309;SDS011;36207;51.850;21.698;2023-04-01T03:22:39;16.60;;;11.60;;
50309;SDS011;36207;51.850;21.698;2023-04-01T03:25:05;17.90;;;11.60;;
50309;SDS011;36207;51.850;21.698;2023-04-01T03:27:33;20.00;;;12.30;;
50309;SDS011;36207;51.850;21.698;2023-04-01T03:30:02;20.50;;;12.70;;
50309;SDS011;36207;51.850;21.698;2023-04-01T03:32:28;21.00;;;12.30;;
50309;SDS011;36207;51.850;21.698;2023-04-01T03:34:55;19.40;;;12.10;;
50309;SDS011;36207;51.850;21.698;2023-04-01T03:37:21;17.00;;;11.80;;
50309;SDS011;36207;51.850;21.698;2023-04-01T03:39:47;18.10;;;11.70;;
50309;SDS011;36207;51.850;21.698;2023-04-01T03:42:13;18.30;;;11.60;;
50309;SDS011;36207;51.850;21.698;2023-04-01T03:44:38;18.70;;;12.20;;
50309;SDS011;36207;51.850;21.698;2023-04-01T03:47:04;18.00;;;11.70;;
50309;SDS011;36207;51.850;21.698;2023-04-01T03:49:30;18.40;;;11.80;;
50309;SDS011;36207;51.850;21.698;2023-04-01T03:51:57;19.80;;;12.00;;
50309;SDS011;36207;51.850;21.698;2023-04-01T03:54:24;17.20;;;11.40;;
50309;SDS011;36207;51.850;21.698;2023-04-01T03:56:50;19.20;;;12.20;;
50309;SDS011;36207;51.850;21.698;2023-04-01T03:59:16;18.40;;;12.20;;
50309;SDS011;36207;51.850;21.698;2023-04-01T04:01:42;17.60;;;12.20;;
50309;SDS011;36207;51.850;21.698;2023-04-01T04:04:11;17.70;;;12.20;;
50309;SDS011;36207;51.850;21.698;2023-04-01T04:06:38;19.10;;;12.10;;
50309;SDS011;36207;51.850;21.698;2023-04-01T04:09:07;17.60;;;11.40;;
50309;SDS011;36207;51.850;21.698;2023-04-01T04:11:33;19.80;;;11.70;;
50309;SDS011;36207;51.850;21.698;2023-04-01T04:13:59;19.50;;;11.80;;
50309;SDS011;36207;51.850;21.698;2023-04-01T04:16:26;20.90;;;12.60;;
50309;SDS011;36207;51.850;21.698;2023-04-01T04:18:52;18.10;;;12.20;;
50309;SDS011;36207;51.850;21.698;2023-04-01T04:21:18;17.60;;;12.40;;
50309;SDS011;36207;51.850;21.698;2023-04-01T04:23:44;18.80;;;11.90;;
50309;SDS011;36207;51.850;21.698;2023-04-01T04:26:11;17.40;;;12.30;;
50309;SDS011;36207;51.850;21.698;2023-04-01T04:28:38;20.90;;;13.00;;
50309;SDS011;36207;51.850;21.698;2023-04-01T04:31:05;18.70;;;12.40;;
50309;SDS011;36207;51.850;21.698;2023-04-01T04:33:32;19.10;;;12.60;;
50309;SDS011;36207;51.850;21.698;2023-04-01T04:35:58;23.70;;;12.30;;
50309;SDS011;36207;51.850;21.698;2023-04-01T04:38:25;18.50;;;12.50;;
50309;SDS011;36207;51.850;21.698;2023-04-01T04:40:52;22.10;;;12.90;;
50309;SDS011;36207;51.850;21.698;2023-04-01T04:43:18;18.80;;;13.00;;
50309;SDS011;36207;51.850;21.698;2023-04-01T04:45:44;22.20;;;13.20;;
50309;SDS011;36207;51.850;21.698;2023-04-01T04:48:11;17.50;;;12.20;;
50309;SDS011;36207;51.850;21.698;2023-04-01T04:50:47;20.40;;;13.30;;
50309;SDS011;36207;51.850;21.698;2023-04-01T04:53:15;21.10;;;13.70;;
50309;SDS011;36207;51.850;21.698;2023-04-01T04:55:43;22.50;;;13.40;;
50309;SDS011;36207;51.850;21.698;2023-04-01T04:58:10;21.80;;;13.70;;
50309;SDS011;36207;51.850;21.698;2023-04-01T05:00:36;22.50;;;13.90;;
50309;SDS011;36207;51.850;21.698;2023-04-01T05:03:04;21.10;;;14.20;;
50309;SDS011;36207;51.850;21.698;2023-04-01T05:05:31;23.00;;;14.70;;
50309;SDS011;36207;51.850;21.698;2023-04-01T05:07:57;20.10;;;13.70;;
50309;SDS011;36207;51.850;21.698;2023-04-01T05:10:23;20.50;;;13.10;;
50309;SDS011;36207;51.850;21.698;2023-04-01T05:12:49;20.50;;;13.80;;
50309;SDS011;36207;51.850;21.698;2023-04-01T05:15:15;20.60;;;13.20;;
50309;SDS011;36207;51.850;21.698;2023-04-01T05:17:41;18.40;;;12.70;;
50309;SDS011;36207;51.850;21.698;2023-04-01T05:20:07;22.00;;;13.10;;
50309;SDS011;36207;51.850;21.698;2023-04-01T05:22:36;21.40;;;13.30;;
50309;SDS011;36207;51.850;21.698;2023-04-01T05:25:02;21.70;;;14.30;;
50309;SDS011;36207;51.850;21.698;2023-04-01T05:27:28;23.40;;;14.00;;
50309;SDS011;36207;51.850;21.698;2023-04-01T05:29:54;21.20;;;13.50;;
50309;SDS011;36207;51.850;21.698;2023-04-01T05:32:20;20.60;;;13.40;;
50309;SDS011;36207;51.850;21.698;2023-04-01T05:34:46;19.40;;;13.50;;
50309;SDS011;36207;51.850;21.698;2023-04-01T05:37:12;19.40;;;14.30;;
50309;SDS011;36207;51.850;21.698;2023-04-01T05:39:38;19.80;;;13.70;;
50309;SDS011;36207;51.850;21.698;2023-04-01T05:42:05;17.90;;;13.50;;
50309;SDS011;36207;51.850;21.698;2023-04-01T05:44:34;18.50;;;13.80;;
50309;SDS011;36207;51.850;21.698;2023-04-01T05:47:01;22.40;;;14.30;;
50309;SDS011;36207;51.850;21.698;2023-04-01T05:49:28;18.40;;;14.00;;
50309;SDS011;36207;51.850;21.698;2023-04-01T05:51:55;17.90;;;13.60;;
50309;SDS011;36207;51.850;21.698;2023-04-01T05:54:22;20.20;;;14.20;;
50309;SDS011;36207;51.850;21.698;2023-04-01T05:56:48;20.80;;;13.40;;
50309;SDS011;36207;51.850;21.698;2023-04-01T05:59:14;22.60;;;14.30;;
50309;SDS011;36207;51.850;21.698;2023-04-01T06:01:40;19.60;;;14.00;;
50309;SDS011;36207;51.850;21.698;2023-04-01T06:04:10;19.70;;;14.10;;
50309;SDS011;36207;51.850;21.698;2023-04-01T06:06:39;20.70;;;14.60;;
50309;SDS011;36207;51.850;21.698;2023-04-01T06:09:15;19.40;;;14.30;;
50309;SDS011;36207;51.850;21.698;2023-04-01T06:17:30;21.00;;;15.00;;
50309;SDS011;36207;51.850;21.698;2023-04-01T06:25:42;20.50;;;15.30;;
50309;SDS011;36207;51.850;21.698;2023-04-01T06:31:05;18.90;;;14.10;;
50309;SDS011;36207;51.850;21.698;2023-04-01T06:37:14;20.00;;;14.50;;
50309;SDS011;36207;51.850;21.698;2023-04-01T06:39:25;18.30;;;13.90;;
50309;SDS011;36207;51.850;21.698;2023-04-01T06:55:42;20.30;;;15.40;;
50309;SDS011;36207;51.850;21.698;2023-04-01T07:01:04;19.30;;;14.10;;
50309;SDS011;36207;51.850;21.698;2023-04-01T07:03:38;19.10;;;14.30;;
50309;SDS011;36207;51.850;21.698;2023-04-01T07:08:40;24.60;;;14.90;;
50309;SDS011;36207;51.850;21.698;2023-04-01T07:11:10;18.30;;;13.20;;
50309;SDS011;36207;51.850;21.698;2023-04-01T07:13:51;17.90;;;13.70;;
50309;SDS011;36207;51.850;21.698;2023-04-01T07:16:38;18.50;;;13.50;;
50309;SDS011;36207;51.850;21.698;2023-04-01T07:22:05;18.40;;;13.50;;
50309;SDS011;36207;51.850;21.698;2023-04-01T07:24:37;16.30;;;12.30;;
50309;SDS011;36207;51.850;21.698;2023-04-01T07:27:09;15.80;;;12.40;;
50309;SDS011;36207;51.850;21.698;2023-04-01T07:29:38;15.80;;;12.10;;
50309;SDS011;36207;51.850;21.698;2023-04-01T07:42:36;17.50;;;13.60;;
50309;SDS011;36207;51.850;21.698;2023-04-01T07:55:52;19.10;;;11.10;;
50309;SDS011;36207;51.850;21.698;2023-04-01T07:58:27;13.30;;;10.00;;
50309;SDS011;36207;51.850;21.698;2023-04-01T08:28:24;12.30;;;8.80;;
50309;SDS011;36207;51.850;21.698;2023-04-01T08:33:59;12.40;;;9.40;;
50309;SDS011;36207;51.850;21.698;2023-04-01T08:36:40;13.50;;;9.40;;
50309;SDS011;36207;51.850;21.698;2023-04-01T08:39:18;13.40;;;9.80;;
50309;SDS011;36207;51.850;21.698;2023-04-01T08:50:19;11.70;;;9.20;;
50309;SDS011;36207;51.850;21.698;2023-04-01T08:55:43;13.00;;;10.00;;
50309;SDS011;36207;51.850;21.698;2023-04-01T08:58:27;13.40;;;9.90;;
50309;SDS011;36207;51.850;21.698;2023-04-01T09:06:51;11.00;;;8.40;;
50309;SDS011;36207;51.850;21.698;2023-04-01T09:53:10;9.90;;;6.90;;
50309;SDS011;36207;51.850;21.698;2023-04-01T09:55:57;10.30;;;6.50;;
50309;SDS011;36207;51.850;21.698;2023-04-01T10:06:40;9.70;;;7.20;;
50309;SDS011;36207;51.850;21.698;2023-04-01T10:12:46;10.60;;;7.10;;
50309;SDS011;36207;51.850;21.698;2023-04-01T10:29:16;10.80;;;7.80;;
50309;SDS011;36207;51.850;21.698;2023-04-01T10:54:37;16.10;;;7.80;;
50309;SDS011;36207;51.850;21.698;2023-04-01T11:00:04;11.10;;;8.50;;
50309;SDS011;36207;51.850;21.698;2023-04-01T11:02:57;11.30;;;8.40;;
50309;SDS011;36207;51.850;21.698;2023-04-01T11:14:29;13.20;;;9.50;;
50309;SDS011;36207;51.850;21.698;2023-04-01T11:22:39;11.20;;;7.90;;
50309;SDS011;36207;51.850;21.698;2023-04-01T11:26:00;10.10;;;7.60;;
50309;SDS011;36207;51.850;21.698;2023-04-01T11:28:24;12.10;;;8.20;;
50309;SDS011;36207;51.850;21.698;2023-04-01T11:36:59;10.20;;;7.10;;
50309;SDS011;36207;51.850;21.698;2023-04-01T11:43:01;9.30;;;7.20;;
50309;SDS011;36207;51.850;21.698;2023-04-01T12:04:24;8.70;;;6.30;;
50309;SDS011;36207;51.850;21.698;2023-04-01T12:09:48;10.90;;;7.40;;
50309;SDS011;36207;51.850;21.698;2023-04-01T12:12:38;10.00;;;6.90;;
50309;SDS011;36207;51.850;21.698;2023-04-01T12:26:43;10.50;;;7.50;;
50309;SDS011;36207;51.850;21.698;2023-04-01T12:32:14;11.40;;;7.30;;
50309;SDS011;36207;51.850;21.698;2023-04-01T12:46:13;9.60;;;6.90;;
50309;SDS011;36207;51.850;21.698;2023-04-01T12:57:10;10.00;;;6.30;;
50309;SDS011;36207;51.850;21.698;2023-04-01T13:11:32;9.70;;;6.40;;
50309;SDS011;36207;51.850;21.698;2023-04-01T13:17:21;10.00;;;6.80;;
50309;SDS011;36207;51.850;21.698;2023-04-01T13:28:14;13.60;;;9.60;;
50309;SDS011;36207;51.850;21.698;2023-04-01T13:30:58;14.40;;;10.00;;
50309;SDS011;36207;51.850;21.698;2023-04-01T13:33:35;13.80;;;10.50;;
50309;SDS011;36207;51.850;21.698;2023-04-01T13:42:02;12.20;;;9.80;;
50309;SDS011;36207;51.850;21.698;2023-04-01T13:50:30;17.40;;;10.60;;
50309;SDS011;36207;51.850;21.698;2023-04-01T14:09:25;18.80;;;12.00;;
50309;SDS011;36207;51.850;21.698;2023-04-01T14:20:48;17.70;;;10.90;;
50309;SDS011;36207;51.850;21.698;2023-04-01T14:46:08;7.60;;;5.70;;
50309;SDS011;36207;51.850;21.698;2023-04-01T14:48:56;8.60;;;5.90;;
50309;SDS011;36207;51.850;21.698;2023-04-01T14:51:32;7.20;;;5.30;;
50309;SDS011;36207;51.850;21.698;2023-04-01T14:54:08;7.50;;;5.30;;
50309;SDS011;36207;51.850;21.698;2023-04-01T14:56:49;10.20;;;5.60;;
50309;SDS011;36207;51.850;21.698;2023-04-01T15:18:05;5.30;;;3.80;;
50309;SDS011;36207;51.850;21.698;2023-04-01T15:37:44;6.40;;;3.90;;
50309;SDS011;36207;51.850;21.698;2023-04-01T15:40:20;6.20;;;4.30;;
50309;SDS011;36207;51.850;21.698;2023-04-01T15:42:55;5.80;;;4.00;;
50309;SDS011;36207;51.850;21.698;2023-04-01T15:57:10;8.70;;;5.30;;
50309;SDS011;36207;51.850;21.698;2023-04-01T16:16:35;10.30;;;6.90;;
50309;SDS011;36207;51.850;21.698;2023-04-01T16:19:34;10.80;;;7.30;;
50309;SDS011;36207;51.850;21.698;2023-04-01T16:27:30;9.00;;;6.10;;
50309;SDS011;36207;51.850;21.698;2023-04-01T16:33:02;9.90;;;6.60;;
50309;SDS011;36207;51.850;21.698;2023-04-01T16:35:35;10.20;;;6.80;;
50309;SDS011;36207;51.850;21.698;2023-04-01T16:38:13;10.90;;;6.60;;
50309;SDS011;36207;51.850;21.698;2023-04-01T16:40:57;9.80;;;7.10;;
50309;SDS011;36207;51.850;21.698;2023-04-01T16:43:56;10.50;;;7.00;;
50309;SDS011;36207;51.850;21.698;2023-04-01T16:46:43;10.60;;;7.20;;
50309;SDS011;36207;51.850;21.698;2023-04-01T16:59:35;12.30;;;7.80;;
50309;SDS011;36207;51.850;21.698;2023-04-01T17:04:45;11.80;;;8.10;;
50309;SDS011;36207;51.850;21.698;2023-04-01T17:20:50;15.40;;;10.60;;
50309;SDS011;36207;51.850;21.698;2023-04-01T17:23:36;14.20;;;9.40;;
50309;SDS011;36207;51.850;21.698;2023-04-01T17:29:19;14.40;;;9.70;;
50309;SDS011;36207;51.850;21.698;2023-04-01T17:32:04;14.00;;;9.30;;
50309;SDS011;36207;51.850;21.698;2023-04-01T17:43:18;11.90;;;7.80;;
50309;SDS011;36207;51.850;21.698;2023-04-01T17:45:57;10.10;;;7.20;;
50309;SDS011;36207;51.850;21.698;2023-04-01T17:56:47;9.40;;;6.20;;
50309;SDS011;36207;51.850;21.698;2023-04-01T18:02:02;7.60;;;5.10;;
50309;SDS011;36207;51.850;21.698;2023-04-01T18:21:46;5.90;;;4.00;;
50309;SDS011;36207;51.850;21.698;2023-04-01T18:27:12;6.30;;;4.10;;
50309;SDS011;36207;51.850;21.698;2023-04-01T18:29:50;5.20;;;3.50;;
50309;SDS011;36207;51.850;21.698;2023-04-01T18:32:33;6.60;;;3.90;;
50309;SDS011;36207;51.850;21.698;2023-04-01T18:37:54;6.20;;;3.90;;
50309;SDS011;36207;51.850;21.698;2023-04-01T18:40:43;6.10;;;4.20;;
50309;SDS011;36207;51.850;21.698;2023-04-01T18:43:36;6.50;;;3.70;;
50309;SDS011;36207;51.850;21.698;2023-04-01T18:46:19;7.50;;;4.50;;
50309;SDS011;36207;51.850;21.698;2023-04-01T18:52:03;6.90;;;4.30;;
50309;SDS011;36207;51.850;21.698;2023-04-01T18:54:44;9.20;;;5.10;;
50309;SDS011;36207;51.850;21.698;2023-04-01T18:57:16;9.00;;;5.00;;
50309;SDS011;36207;51.850;21.698;2023-04-01T19:04:57;6.00;;;4.30;;
50309;SDS011;36207;51.850;21.698;2023-04-01T19:21:41;7.80;;;5.00;;
50309;SDS011;36207;51.850;21.698;2023-04-01T19:27:02;8.40;;;4.90;;
50309;SDS011;36207;51.850;21.698;2023-04-01T19:46:30;6.50;;;4.10;;
50309;SDS011;36207;51.850;21.698;2023-04-01T19:49:24;5.90;;;4.20;;
50309;SDS011;36207;51.850;21.698;2023-04-01T19:54:43;7.10;;;4.60;;
50309;SDS011;36207;51.850;21.698;2023-04-01T20:00:07;6.60;;;3.90;;
50309;SDS011;36207;51.850;21.698;2023-04-01T20:08:12;6.90;;;4.20;;
50309;SDS011;36207;51.850;21.698;2023-04-01T20:10:55;5.60;;;3.90;;
50309;SDS011;36207;51.850;21.698;2023-04-01T20:16:20;6.40;;;4.40;;
50309;SDS011;36207;51.850;21.698;2023-04-01T20:18:49;8.30;;;5.00;;
50309;SDS011;36207;51.850;21.698;2023-04-01T20:21:20;8.80;;;5.10;;
50309;SDS011;36207;51.850;21.698;2023-04-01T20:23:56;6.90;;;3.80;;
50309;SDS011;36207;51.850;21.698;2023-04-01T20:26:29;5.60;;;3.60;;
50309;SDS011;36207;51.850;21.698;2023-04-01T20:29:18;5.60;;;3.60;;
50309;SDS011;36207;51.850;21.698;2023-04-01T20:46:45;7.00;;;4.00;;
50309;SDS011;36207;51.850;21.698;2023-04-01T20:49:28;6.70;;;4.10;;
50309;SDS011;36207;51.850;21.698;2023-04-01T20:52:49;6.00;;;3.80;;
50309;SDS011;36207;51.850;21.698;2023-04-01T20:58:09;5.40;;;3.70;;
50309;SDS011;36207;51.850;21.698;2023-04-01T21:00:59;6.50;;;4.00;;
50309;SDS011;36207;51.850;21.698;2023-04-01T21:03:29;4.80;;;3.60;;
50309;SDS011;36207;51.850;21.698;2023-04-01T21:06:10;7.00;;;4.10;;
50309;SDS011;36207;51.850;21.698;2023-04-01T21:08:46;5.40;;;3.70;;
50309;SDS011;36207;51.850;21.698;2023-04-01T21:11:20;6.60;;;4.20;;
50309;SDS011;36207;51.850;21.698;2023-04-01T21:14:06;7.00;;;4.50;;
50309;SDS011;36207;51.850;21.698;2023-04-01T21:16:53;8.80;;;4.60;;
50309;SDS011;36207;51.850;21.698;2023-04-01T21:31:22;7.40;;;5.10;;
50309;SDS011;36207;51.850;21.698;2023-04-01T21:36:42;10.00;;;6.60;;
50309;SDS011;36207;51.850;21.698;2023-04-01T21:42:21;8.20;;;5.40;;
50309;SDS011;36207;51.850;21.698;2023-04-01T22:09:47;5.50;;;3.80;;
50309;SDS011;36207;51.850;21.698;2023-04-01T22:13:05;6.10;;;4.20;;
50309;SDS011;36207;51.850;21.698;2023-04-01T22:18:40;6.70;;;4.20;;
50309;SDS011;36207;51.850;21.698;2023-04-01T22:21:24;6.10;;;4.20;;
50309;SDS011;36207;51.850;21.698;2023-04-01T22:26:38;6.30;;;4.20;;
50309;SDS011;36207;51.850;21.698;2023-04-01T22:29:21;8.70;;;4.50;;
50309;SDS011;36207;51.850;21.698;2023-04-01T22:32:34;7.20;;;4.90;;
50309;SDS011;36207;51.850;21.698;2023-04-01T22:37:32;8.20;;;5.60;;
50309;SDS011;36207;51.850;21.698;2023-04-01T22:42:47;8.10;;;5.40;;
50309;SDS011;36207;51.850;21.698;2023-04-01T22:45:44;8.20;;;5.20;;
50309;SDS011;36207;51.850;21.698;2023-04-01T22:56:30;6.60;;;4.80;;
50309;SDS011;36207;51.850;21.698;2023-04-01T22:59:08;7.60;;;5.10;;
50309;SDS011;36207;51.850;21.698;2023-04-01T23:01:43;8.70;;;5.70;;
50309;SDS011;36207;51.850;21.698;2023-04-01T23:04:17;8.60;;;5.70;;
50309;SDS011;36207;51.850;21.698;2023-04-01T23:06:55;8.10;;;5.80;;
50309;SDS011;36207;51.850;21.698;2023-04-01T23:09:26;9.20;;;5.80;;
50309;SDS011;36207;51.850;21.698;2023-04-01T23:11:57;7.80;;;5.40;;
50309;SDS011;36207;51.850;21.698;2023-04-01T23:17:12;10.10;;;6.50;;
50309;SDS011;36207;51.850;21.698;2023-04-01T23:25:01;8.30;;;5.80;;
50309;SDS011;36207;51.850;21.698;2023-04-01T23:35:48;11.60;;;8.00;;
50309;SDS011;36207;51.850;21.698;2023-04-01T23:38:15;12.70;;;8.00;;
50309;SDS011;36207;51.850;21.698;2023-04-01T23:40:41;12.90;;;8.10;;
50309;SDS011;36207;51.850;21.698;2023-04-01T23:43:41;12.80;;;8.50;;
50309;SDS011;36207;51.850;21.698;2023-04-01T23:46:03;13.20;;;8.90;;
50309;SDS011;36207;51.850;21.698;2023-04-01T23:51:20;15.10;;;8.90;;
50309;SDS011;36207;51.850;21.698;2023-04-01T23:53:56;13.30;;;9.20;;
50309;SDS011;36207;51.850;21.698;2023-04-01T23:56:43;15.50;;;9.40;;
50309;SDS011;36207;51.850;21.698;2023-04-01T23:59:33;14.10;;;8.90;;
